Palmas, Brazil
Current Conditions -  °F | °C
As of 1:00 PM on Sunday 23 Nov 2014 (Local Time) from SBCJ Reporting Station
Haze Haze  
Wind Chill: 75°   Ceiling: 300
Heat Index: 75°   Visibility: 3mi
Dew Point: 72°   Wind: 5mph
Humidity: 89%   Direction: 30°NNE
Pressure: 29.97"   Gusts: NA
Location:  10.21°S, 48.36°W
Report Text: SBCJ 231600Z 03004KT 5000 BR BKN003 24/22 Q1015
Loading
Personal Weather Stations






























Interactive Weather Map New forecast layout! Learn more

10-Day Weather Forecast

Advertisements
Track Severe Weather on mobile